首页
METAR-TAF:

METAR-TAF

机场 :

广州, 中华人民共和国

广州白云国际机场

纬度: 23-10N, 经度: 113-20E, 海拔: 8米

当前天气观测

该预报发布于15分钟前的05:30 UTC
风速8节,风向
温度 18°C
湿度 88%
气压 1019 hPa
能见度10公里或以上
散云层高于1500英尺
多云层高于3300英尺

METAR: ZGGG 250530Z 36004MPS 9999 SCT015 BKN033 18/16 Q1019 NOSIG

时间: 13:45 (05:45 UTC)

预报

该预报发布于2小时和44分钟前的03:01 UTC
预报有效从25日的 06点(UTC)到 26日的 06点(UTC)
风速8节,风向
能見度: 6000
多云层高于4000英尺
短暂存在
从 25日的 06点(UTC)到 25日的 10点(UTC)
能見度: 4000
小雨

TAF: ZGGG 250301Z 2506/2606 36004MPS 6000 BKN040 TX20/2506Z TN14/2522Z TEMPO 2506/2510 4000 -RA

超过4000个机场的气象观测和天气预报(METAR&TAF报告)。

可查询的气象台以黄色和红色小点在地图上表示。

将鼠标移到小点上方,可查看气象台名称。

然后点击查看天气观测和预报。

如需切换地图:点击带黑十字的绿色按钮放大地图;点击带横线的绿色按钮缩小地图;或者点击绿色箭头查看邻近地区的地图。


METAR-TAF: